Latest Weather Observations for Kurnell

IDN60901

Issued at 7:01 am EDT Thursday 2 March 2017 (issued every 10 minutes, with the page automatically refreshed every 10 minutes)

About weather observations | Map of Sydney area stations | Latest observations for Sydney area | Other Formats
Station Details ID: 066043 Name: KURNELL AWS Lat: -34.00 Lon: 151.21 Height: 4.0 m
Data from the previous 72 hours. | See also: Recent months for locations in New South Wales
Date/Time
EDT
Temp
°C
App
Temp
°C
Dew
Point
°C
Rel
Hum
%
Delta-T
°C
Wind Press
QNH
hPa
Press
MSL
hPa
Rain since
9am
mm
Dir  Spd
km/h
Gust
km/h
Spd
kts
Gust
kts
02/06:30am - - - - - W 6 9 3 5 - - -
02/06:00am - - - - - SW 6 9 3 5 - - -
02/05:30am - - - - - SW 7 9 4 5 - - -
02/05:00am - - - - - SSW 9 11 5 6 - - -
02/04:30am - - - - - SW 11 15 6 8 - - -
02/04:00am - - - - - W 9 13 5 7 - - -
02/03:30am - - - - - SSW 6 9 3 5 - - -
02/03:00am - - - - - SW 11 15 6 8 - - -
02/02:30am - - - - - SW 11 15 6 8 - - -
02/02:00am - - - - - S 9 11 5 6 - - -
02/01:30am - - - - - S 9 13 5 7 - - -
02/01:00am - - - - - SW 11 13 6 7 - - -
02/12:30am - - - - - W 11 13 6 7 - - -
02/12:00am - - - - - WSW 7 11 4 6 - - -
 
Date/Time
EDT
Temp
°C
App
Temp
°C
Dew
Point
°C
Rel
Hum
%
Delta-T
°C
Wind Press
QNH
hPa
Press
MSL
hPa
Rain since
9am
mm
Dir  Spd
km/h
Gust
km/h
Spd
kts
Gust
kts
01/11:30pm - - - - - E 17 32 9 17 - - -
01/11:13pm - - - - - SE 17 33 9 18 - - -
01/11:00pm - - - - - SSW 11 15 6 8 - - -
01/10:30pm - - - - - S 9 11 5 6 - - -
01/10:00pm - - - - - S 11 17 6 9 - - -
01/09:30pm - - - - - SW 7 7 4 4 - - -
01/09:00pm - - - - - SW 6 7 3 4 - - -
01/08:30pm - - - - - SW 11 13 6 7 - - -
01/08:00pm - - - - - SW 13 17 7 9 - - -
01/07:30pm - - - - - SSW 11 13 6 7 - - -
01/07:00pm - - - - - SSE 11 15 6 8 - - -
01/06:30pm - - - - - SSE 13 15 7 8 - - -
01/06:00pm - - - - - S 15 19 8 10 - - -
01/05:30pm - - - - - SW 13 15 7 8 - - -
01/05:00pm - - - - - SSE 15 19 8 10 - - -
01/04:30pm - - - - - SSW 11 15 6 8 - - -
01/04:00pm - - - - - S 9 13 5 7 - - -
01/03:30pm - - - - - SSE 19 26 10 14 - - -
01/03:00pm - - - - - S 15 30 8 16 - - -
01/02:30pm - - - - - S 19 28 10 15 - - -
01/02:00pm - - - - - S 15 24 8 13 - - -
01/01:30pm - - - - - NE 7 9 4 5 - - -
01/01:00pm - - - - - ENE 9 11 5 6 - - -
01/12:30pm - - - - - SE 13 17 7 9 - - -
01/12:00pm - - - - - ESE 9 17 5 9 - - -
01/11:30am - - - - - SSE 11 17 6 9 - - -
01/11:00am - - - - - SW 7 7 4 4 - - -
01/10:30am - - - - - NNE 7 7 4 4 - - -
01/10:00am - - - - - ENE 13 17 7 9 - - -
01/09:30am - - - - - ENE 11 15 6 8 - - -
01/09:00am - - - - - ENE 15 17 8 9 - - -
01/08:30am - - - - - ENE 15 22 8 12 - - -
01/08:00am - - - - - SE 26 35 14 19 - - -
01/07:30am - - - - - ESE 20 28 11 15 - - -
01/07:00am - - - - - ESE 20 28 11 15 - - -
01/06:30am - - - - - ESE 28 41 15 22 - - -
01/06:00am - - - - - ESE 19 28 10 15 - - -
01/05:30am - - - - - ESE 24 33 13 18 - - -
01/05:00am - - - - - SE 22 28 12 15 - - -
01/04:30am - - - - - SE 26 32 14 17 - - -
01/04:00am - - - - - ESE 19 28 10 15 - - -
01/03:30am - - - - - SE 22 28 12 15 - - -
01/03:00am - - - - - SE 26 35 14 19 - - -
01/02:30am - - - - - SE 24 32 13 17 - - -
01/02:00am - - - - - SE 24 32 13 17 - - -
01/01:30am - - - - - SSE 15 20 8 11 - - -
01/01:00am - - - - - SSE 17 24 9 13 - - -
01/12:30am - - - - - SE 17 26 9 14 - - -
01/12:00am - - - - - SE 20 28 11 15 - - -
 
Date/Time
EDT
Temp
°C
App
Temp
°C
Dew
Point
°C
Rel
Hum
%
Delta-T
°C
Wind Press
QNH
hPa
Press
MSL
hPa
Rain since
9am
mm
Dir  Spd
km/h
Gust
km/h
Spd
kts
Gust
kts
28/11:30pm - - - - - SE 19 26 10 14 - - -
28/11:00pm - - - - - SE 22 28 12 15 - - -
28/10:30pm - - - - - SE 17 22 9 12 - - -
28/10:00pm - - - - - SE 19 28 10 15 - - -
28/09:30pm - - - - - SE 19 24 10 13 - - -
28/09:00pm - - - - - SE 19 26 10 14 - - -
28/08:30pm - - - - - SE 17 26 9 14 - - -
28/08:00pm - - - - - SE 17 22 9 12 - - -
28/07:30pm - - - - - SE 17 20 9 11 - - -
28/07:00pm - - - - - ESE 17 24 9 13 - - -
28/06:30pm - - - - - SE 20 26 11 14 - - -
28/06:00pm - - - - - SE 19 24 10 13 - - -
28/05:30pm - - - - - ESE 22 30 12 16 - - -
28/05:00pm - - - - - E 11 15 6 8 - - -
28/04:30pm - - - - - ENE 20 26 11 14 - - -
28/04:00pm - - - - - E 22 37 12 20 - - -
28/03:30pm - - - - - ESE 19 28 10 15 - - -
28/03:00pm - - - - - E 19 26 10 14 - - -
28/02:30pm - - - - - E 19 24 10 13 - - -
28/02:00pm - - - - - E 24 30 13 16 - - -
28/01:30pm - - - - - E 26 32 14 17 - - -
28/01:00pm - - - - - E 26 33 14 18 - - -
28/12:30pm - - - - - E 24 30 13 16 - - -
28/12:00pm - - - - - E 24 30 13 16 - - -
28/11:30am - - - - - ESE 19 28 10 15 - - -
28/11:00am - - - - - ESE 24 33 13 18 - - -
28/10:30am - - - - - ESE 20 32 11 17 - - -
28/10:00am - - - - - E 20 26 11 14 - - -
28/09:30am - - - - - E 19 26 10 14 - - -
28/09:00am - - - - - E 17 24 9 13 - - -
28/08:30am - - - - - ESE 17 20 9 11 - - -
28/08:00am - - - - - ESE 15 24 8 13 - - -
28/07:30am - - - - - E 17 26 9 14 - - -
28/07:00am - - - - - ESE 17 24 9 13 - - -
28/06:30am - - - - - SE 15 20 8 11 - - -
28/06:00am - - - - - ESE 20 26 11 14 - - -
28/05:30am - - - - - ESE 19 24 10 13 - - -
28/05:00am - - - - - ESE 19 28 10 15 - - -
28/04:30am - - - - - ESE 19 28 10 15 - - -
28/04:00am - - - - - ESE 19 24 10 13 - - -
28/03:30am - - - - - ESE 17 26 9 14 - - -
28/03:00am - - - - - ESE 15 20 8 11 - - -
28/02:30am - - - - - ESE 17 24 9 13 - - -
28/02:00am - - - - - ESE 19 28 10 15 - - -
28/01:30am - - - - - ESE 13 15 7 8 - - -
28/01:00am - - - - - ENE 26 33 14 18 - - -
28/12:58am - - - - - ENE 24 33 13 18 - - -
28/12:30am - - - - - SW 6 13 3 7 - - -
28/12:00am - - - - - SSE 13 17 7 9 - - -
 
Date/Time
EDT
Temp
°C
App
Temp
°C
Dew
Point
°C
Rel
Hum
%
Delta-T
°C
Wind Press
QNH
hPa
Press
MSL
hPa
Rain since
9am
mm
Dir  Spd
km/h
Gust
km/h
Spd
kts
Gust
kts
27/11:30pm - - - - - SSE 13 17 7 9 - - -
27/11:00pm - - - - - SSE 13 17 7 9 - - -
27/10:30pm - - - - - SSE 13 17 7 9 - - -
27/10:00pm - - - - - S 15 19 8 10 - - -
27/09:30pm - - - - - S 19 26 10 14 - - -
27/09:00pm - - - - - S 19 26 10 14 - - -
27/08:30pm - - - - - SSW 20 30 11 16 - - -
27/08:00pm - - - - - SSW 24 30 13 16 - - -
27/07:30pm - - - - - S 26 37 14 20 - - -
27/07:00pm - - - - - SSW 28 35 15 19 - - -
27/06:30pm - - - - - S 30 37 16 20 - - -
27/06:00pm - - - - - S 28 37 15 20 - - -
27/05:30pm - - - - - S 26 33 14 18 - - -
27/05:00pm - - - - - S 26 33 14 18 - - -
27/04:30pm - - - - - S 26 37 14 20 - - -
27/04:00pm - - - - - S 26 37 14 20 - - -
27/03:30pm - - - - - S 30 39 16 21 - - -
27/03:00pm - - - - - S 28 41 15 22 - - -
27/02:30pm - - - - - S 28 37 15 20 - - -
27/02:00pm - - - - - S 28 37 15 20 - - -
27/01:30pm - - - - - SSE 28 37 15 20 - - -
27/01:00pm - - - - - SSE 26 35 14 19 - - -
27/12:30pm - - - - - SE 24 39 13 21 - - -
27/12:00pm - - - - - SE 26 35 14 19 - - -
27/11:30am - - - - - SE 24 33 13 18 - - -
27/11:00am - - - - - SE 24 32 13 17 - - -
27/10:30am - - - - - SE 20 28 11 15 - - -
27/10:00am - - - - - SE 20 32 11 17 - - -
27/09:30am - - - - - SE 22 30 12 16 - - -
27/09:00am - - - - - SE 22 28 12 15 - - -
27/08:30am - - - - - SE 22 30 12 16 - - -
27/08:00am - - - - - SE 17 26 9 14 - - -
27/07:30am - - - - - SE 22 30 12 16 - - -

Latest Capital City Observations: Canberra | Sydney | Melbourne | Brisbane | Adelaide | Perth | Hobart | Darwin

Other Formats:

Comma delimited format used in spreadsheet applications
http://www.bom.gov.au/fwo/IDN60901/IDN60901.95756.axf

JavaScript Object Notation format (JSON) in row-major order
http://www.bom.gov.au/fwo/IDN60901/IDN60901.95756.json